createdAt,value
2022-10-17T00:00:56.063Z,101634.94
2022-10-17T00:03:22.626Z,101633.28
2022-10-17T00:05:49.655Z,101629.38
2022-10-17T00:08:18.326Z,101629.22
2022-10-17T00:10:46.139Z,101637.16
2022-10-17T00:13:13.054Z,101637.09
2022-10-17T00:15:43.880Z,101631.47
2022-10-17T00:18:10.465Z,101631.78
2022-10-17T00:20:37.030Z,101634.06
2022-10-17T00:23:03.860Z,101628.84
2022-10-17T00:25:30.391Z,101632.38
2022-10-17T00:27:57.071Z,101633.56
2022-10-17T00:30:23.640Z,101635.12
2022-10-17T00:32:50.261Z,101640.50
2022-10-17T00:35:16.877Z,101638.53
2022-10-17T00:37:43.418Z,101635.12
2022-10-17T00:40:10.657Z,101642.59
2022-10-17T00:42:37.451Z,101635.78
2022-10-17T00:45:15.478Z,101632.38
2022-10-17T00:47:43.173Z,101631.88
2022-10-17T00:50:11.090Z,101629.00
2022-10-17T00:52:37.697Z,101630.09
2022-10-17T00:55:14.749Z,101628.56
2022-10-17T00:57:41.909Z,101628.91
2022-10-17T01:00:10.162Z,101629.06
2022-10-17T01:02:37.605Z,101629.75
2022-10-17T01:05:05.184Z,101631.81
2022-10-17T01:07:34.936Z,101632.41
2022-10-17T01:10:05.422Z,101632.72
2022-10-17T01:12:55.420Z,101630.50
2022-10-17T01:15:31.170Z,101628.28
2022-10-17T01:18:06.997Z,101622.75
2022-10-17T01:21:05.551Z,101623.03
2022-10-17T01:23:50.192Z,101618.97
2022-10-17T01:26:33.823Z,101620.06
2022-10-17T01:29:31.726Z,101621.72
2022-10-17T01:32:20.652Z,101619.06
2022-10-17T01:34:59.130Z,101617.28
2022-10-17T01:37:44.226Z,101620.84
2022-10-17T01:40:21.439Z,101624.56
2022-10-17T01:43:13.094Z,101621.44
2022-10-17T01:45:52.321Z,101623.72
2022-10-17T01:48:25.346Z,101633.69
2022-10-17T01:50:58.693Z,101639.06
2022-10-17T01:53:33.788Z,101635.44
2022-10-17T01:56:03.908Z,101629.16
2022-10-17T01:58:39.575Z,101625.81
2022-10-17T02:01:11.206Z,101634.41
2022-10-17T02:03:39.993Z,101632.34
2022-10-17T02:06:07.909Z,101636.72
2022-10-17T02:08:46.505Z,101629.25
2022-10-17T02:11:23.960Z,101631.59
2022-10-17T02:14:24.740Z,101634.41
2022-10-17T02:16:54.260Z,101634.72
2022-10-17T02:19:29.875Z,101636.84
2022-10-17T02:22:02.438Z,101637.97
2022-10-17T02:25:05.875Z,101642.47
2022-10-17T02:27:52.390Z,101637.47
2022-10-17T02:30:33.477Z,101642.63
2022-10-17T02:33:06.764Z,101646.97
2022-10-17T02:35:37.298Z,101634.03
2022-10-17T02:38:05.082Z,101642.63
2022-10-17T02:40:32.007Z,101644.53
2022-10-17T02:43:01.035Z,101644.53
2022-10-17T02:45:30.326Z,101636.63
2022-10-17T02:48:05.321Z,101648.91
2022-10-17T02:51:10.286Z,101656.81
2022-10-17T02:53:46.208Z,101656.97
2022-10-17T02:56:18.930Z,101658.75
2022-10-17T02:58:53.359Z,101658.59
2022-10-17T03:01:21.121Z,101659.84
2022-10-17T03:03:47.820Z,101663.94
2022-10-17T03:06:14.576Z,101663.03
2022-10-17T03:08:41.228Z,101659.19
2022-10-17T03:11:07.779Z,101666.28
2022-10-17T03:13:36.318Z,101662.66
2022-10-17T03:16:06.419Z,101663.47
2022-10-17T03:18:32.959Z,101668.13
2022-10-17T03:20:59.465Z,101669.44
2022-10-17T03:23:26.045Z,101665.41
2022-10-17T03:25:52.634Z,101670.87
2022-10-17T03:28:19.211Z,101667.84
2022-10-17T03:30:45.791Z,101663.47
2022-10-17T03:33:12.357Z,101676.19
2022-10-17T03:35:40.498Z,101677.81
2022-10-17T03:38:07.236Z,101680.38
2022-10-17T03:40:33.813Z,101683.97
2022-10-17T03:43:00.414Z,101687.94
2022-10-17T03:45:26.979Z,101694.31
2022-10-17T03:47:53.562Z,101692.00
2022-10-17T03:50:20.156Z,101695.09
2022-10-17T03:52:48.497Z,101699.62
2022-10-17T03:55:16.015Z,101699.78
2022-10-17T03:57:45.435Z,101707.97
2022-10-17T04:00:15.828Z,101711.87
2022-10-17T04:02:42.578Z,101706.84
2022-10-17T04:05:09.351Z,101706.03
2022-10-17T04:07:37.638Z,101712.75
2022-10-17T04:10:05.096Z,101714.91
2022-10-17T04:12:31.923Z,101718.59
2022-10-17T04:14:58.658Z,101713.56
2022-10-17T04:17:25.165Z,101719.75
2022-10-17T04:19:51.839Z,101715.37
2022-10-17T04:22:18.375Z,101724.94
2022-10-17T04:24:45.018Z,101715.66
2022-10-17T04:27:11.607Z,101731.63
2022-10-17T04:29:38.172Z,101728.59
2022-10-17T04:32:04.993Z,101731.63
2022-10-17T04:34:31.529Z,101729.19
2022-10-17T04:36:58.088Z,101738.31
2022-10-17T04:39:24.657Z,101743.75
2022-10-17T04:41:51.202Z,101745.41
2022-10-17T04:44:18.125Z,101744.19
2022-10-17T04:46:44.731Z,101748.56
2022-10-17T04:49:11.267Z,101742.56
2022-10-17T04:51:38.584Z,101736.69
2022-10-17T04:54:05.423Z,101743.78
2022-10-17T04:56:32.054Z,101744.34
2022-10-17T04:58:59.704Z,101752.63
2022-10-17T05:01:26.841Z,101744.06
2022-10-17T05:03:54.321Z,101751.94
2022-10-17T05:06:23.645Z,101759.28
2022-10-17T05:08:50.575Z,101757.66
2022-10-17T05:11:19.168Z,101760.09
2022-10-17T05:13:50.192Z,101757.25
2022-10-17T05:16:16.753Z,101761.88
2022-10-17T05:18:43.290Z,101756.84
2022-10-17T05:21:09.856Z,101761.59
2022-10-17T05:23:36.420Z,101762.69
2022-10-17T05:26:03.042Z,101770.41
2022-10-17T05:28:29.673Z,101774.34
2022-10-17T05:30:56.247Z,101776.09
2022-10-17T05:33:23.776Z,101781.78
2022-10-17T05:35:50.320Z,101784.75
2022-10-17T05:38:16.914Z,101793.59
2022-10-17T05:40:43.473Z,101798.69
2022-10-17T05:43:10.201Z,101795.69
2022-10-17T05:45:37.230Z,101802.06
2022-10-17T05:48:03.984Z,101800.91
2022-10-17T05:50:30.551Z,101802.63
2022-10-17T05:52:57.191Z,101808.72
2022-10-17T05:55:23.829Z,101816.03
2022-10-17T05:57:52.572Z,101819.22
2022-10-17T06:00:19.446Z,101817.09
2022-10-17T06:02:46.668Z,101821.53
2022-10-17T06:05:14.522Z,101827.31
2022-10-17T06:07:41.580Z,101827.38
2022-10-17T06:10:08.669Z,101829.59
2022-10-17T06:12:35.214Z,101830.97
2022-10-17T06:15:01.848Z,101830.59
2022-10-17T06:17:29.201Z,101841.25
2022-10-17T06:19:56.448Z,101843.09
2022-10-17T06:22:23.438Z,101844.66
2022-10-17T06:24:50.075Z,101846.91
2022-10-17T06:27:16.608Z,101853.13
2022-10-17T06:29:43.124Z,101855.00
2022-10-17T06:32:12.627Z,101855.69
2022-10-17T06:34:41.579Z,101865.47
2022-10-17T06:37:08.179Z,101865.62
2022-10-17T06:39:35.884Z,101867.75
2022-10-17T06:42:04.060Z,101868.66
2022-10-17T06:44:31.873Z,101872.72
2022-10-17T06:46:59.523Z,101872.38
2022-10-17T06:49:26.833Z,101888.88
2022-10-17T06:51:53.736Z,101885.50
2022-10-17T06:54:20.561Z,101884.56
2022-10-17T06:56:47.126Z,101889.78
2022-10-17T06:59:15.534Z,101891.09
2022-10-17T07:01:46.063Z,101892.41
2022-10-17T07:04:14.203Z,101890.31
2022-10-17T07:06:40.955Z,101896.53
2022-10-17T07:09:08.088Z,101897.66
2022-10-17T07:11:35.242Z,101894.94
2022-10-17T07:14:02.167Z,101888.50
2022-10-17T07:16:29.210Z,101901.97
2022-10-17T07:18:56.047Z,101897.81
2022-10-17T07:21:22.900Z,101897.25
2022-10-17T07:23:49.724Z,101900.53
2022-10-17T07:26:17.570Z,101898.78
2022-10-17T07:28:46.263Z,101904.69
2022-10-17T07:31:15.655Z,101901.00
2022-10-17T07:33:43.434Z,101901.00
2022-10-17T07:36:14.096Z,101901.16
2022-10-17T07:38:42.140Z,101898.31
2022-10-17T07:41:10.938Z,101904.97
2022-10-17T07:43:37.602Z,101907.66
2022-10-17T07:46:05.328Z,101910.75
2022-10-17T07:48:32.082Z,101910.56
2022-10-17T07:51:02.283Z,101904.94
2022-10-17T07:53:28.696Z,101914.22
2022-10-17T07:55:55.284Z,101908.78
2022-10-17T07:58:21.891Z,101916.50
2022-10-17T08:00:49.128Z,101923.19
2022-10-17T08:03:15.808Z,101923.44
2022-10-17T08:05:42.396Z,101918.37
2022-10-17T08:08:08.951Z,101914.72
2022-10-17T08:10:35.644Z,101920.56
2022-10-17T08:13:02.908Z,101924.03
2022-10-17T08:15:31.837Z,101924.38
2022-10-17T08:17:59.435Z,101925.97
2022-10-17T08:20:26.231Z,101934.91
2022-10-17T08:22:54.555Z,101935.06
2022-10-17T08:25:21.937Z,101934.63
2022-10-17T08:27:49.229Z,101934.75
2022-10-17T08:30:16.695Z,101941.03
2022-10-17T08:32:43.602Z,101940.25
2022-10-17T08:35:10.243Z,101938.56
2022-10-17T08:37:36.967Z,101935.03
2022-10-17T08:40:04.628Z,101931.06
2022-10-17T08:42:39.051Z,101926.47
2022-10-17T08:45:24.342Z,101935.72
2022-10-17T08:48:02.893Z,101932.34
2022-10-17T08:50:38.210Z,101931.87
2022-10-17T08:53:04.719Z,101932.06
2022-10-17T08:55:42.989Z,101930.38
2022-10-17T08:58:21.595Z,101925.72
2022-10-17T09:01:11.940Z,101937.44
2022-10-17T09:04:01.892Z,101930.81
2022-10-17T09:06:36.934Z,101933.25
2022-10-17T09:09:26.627Z,101933.16
2022-10-17T09:12:06.881Z,101932.16
2022-10-17T09:15:18.906Z,101939.47
2022-10-17T09:17:55.837Z,101931.78
2022-10-17T09:20:47.042Z,101935.75
2022-10-17T09:23:19.084Z,101934.44
2022-10-17T09:25:49.771Z,101933.22
2022-10-17T09:28:21.451Z,101932.28
2022-10-17T09:30:56.837Z,101936.56
2022-10-17T09:33:53.333Z,101935.06
2022-10-17T09:36:28.885Z,101933.69
2022-10-17T09:39:18.357Z,101927.00
2022-10-17T09:41:48.399Z,101934.38
2022-10-17T09:44:21.926Z,101928.91
2022-10-17T09:46:54.901Z,101934.25
2022-10-17T09:49:29.300Z,101927.41
2022-10-17T09:51:55.919Z,101923.66
2022-10-17T09:54:32.409Z,101925.91
2022-10-17T09:57:03.809Z,101929.00
2022-10-17T09:59:39.748Z,101928.03
2022-10-17T10:02:12.633Z,101929.56
2022-10-17T10:05:07.271Z,101929.53
2022-10-17T10:07:37.556Z,101927.56
2022-10-17T10:10:08.253Z,101926.00
2022-10-17T10:12:38.656Z,101928.16
2022-10-17T10:15:32.502Z,101921.03
2022-10-17T10:17:59.089Z,101926.41
2022-10-17T10:20:27.886Z,101924.97
2022-10-17T10:23:18.382Z,101926.31
2022-10-17T10:25:58.165Z,101919.72
2022-10-17T10:28:28.922Z,101924.50
2022-10-17T10:30:57.467Z,101921.91
2022-10-17T10:33:28.540Z,101909.16
2022-10-17T10:36:04.039Z,101917.63
2022-10-17T10:38:32.973Z,101918.19
2022-10-17T10:41:05.818Z,101915.34
2022-10-17T10:43:35.244Z,101915.47
2022-10-17T10:46:06.337Z,101914.22
2022-10-17T10:48:37.129Z,101905.47
2022-10-17T10:51:16.475Z,101916.44
2022-10-17T10:53:42.992Z,101907.91
2022-10-17T10:56:28.323Z,101915.88
2022-10-17T10:59:10.307Z,101899.50
2022-10-17T11:01:54.410Z,101901.28
2022-10-17T11:04:40.822Z,101902.66
2022-10-17T11:07:10.312Z,101902.62
2022-10-17T11:09:46.488Z,101895.69
2022-10-17T11:12:22.674Z,101889.06
2022-10-17T11:15:14.493Z,101887.50
2022-10-17T11:18:00.966Z,101885.16
2022-10-17T11:20:58.245Z,101891.25
2022-10-17T11:23:34.297Z,101886.38
2022-10-17T11:26:05.688Z,101884.47
2022-10-17T11:28:32.397Z,101888.47
2022-10-17T11:31:07.926Z,101884.63
2022-10-17T11:34:21.240Z,101885.53
2022-10-17T11:36:54.591Z,101878.88
2022-10-17T11:39:34.270Z,101871.06
2022-10-17T11:42:07.216Z,101867.84
2022-10-17T11:44:41.710Z,101867.25
2022-10-17T11:47:28.564Z,101870.13
2022-10-17T11:53:04.392Z,101865.97
2022-10-17T11:55:32.629Z,101860.87
2022-10-17T11:58:14.083Z,101865.66
2022-10-17T12:00:56.208Z,101852.16
2022-10-17T12:03:31.655Z,101855.81
2022-10-17T12:06:18.986Z,101859.69
2022-10-17T12:08:55.357Z,101861.22
2022-10-17T12:11:24.908Z,101852.34
2022-10-17T12:13:54.683Z,101868.03
2022-10-17T12:16:21.166Z,101855.47
2022-10-17T12:19:08.557Z,101845.72
2022-10-17T12:21:56.125Z,101849.66
2022-10-17T12:24:37.914Z,101844.22
2022-10-17T12:27:33.050Z,101838.00
2022-10-17T12:30:21.126Z,101829.75
2022-10-17T12:33:06.745Z,101835.78
2022-10-17T12:35:36.336Z,101826.03
2022-10-17T12:38:14.009Z,101825.47
2022-10-17T12:40:48.517Z,101832.94
2022-10-17T12:43:15.512Z,101823.34
2022-10-17T12:45:50.022Z,101822.28
2022-10-17T12:48:34.976Z,101818.28
2022-10-17T12:54:02.044Z,101817.34
2022-10-17T12:56:40.602Z,101815.09
2022-10-17T12:59:27.783Z,101813.66
2022-10-17T13:02:03.573Z,101815.53
2022-10-17T13:04:30.954Z,101821.56
2022-10-17T13:07:01.062Z,101815.00
2022-10-17T13:09:35.373Z,101806.44
2022-10-17T13:12:06.950Z,101811.00
2022-10-17T13:14:34.250Z,101806.16
2022-10-17T13:17:04.132Z,101808.84
2022-10-17T13:19:44.014Z,101802.75
2022-10-17T13:22:17.071Z,101810.97
2022-10-17T13:24:44.279Z,101797.22
2022-10-17T13:27:29.631Z,101798.31
2022-10-17T13:29:58.113Z,101810.59
2022-10-17T13:32:26.815Z,101802.31
2022-10-17T13:35:08.867Z,101801.53
2022-10-17T13:37:36.619Z,101799.00
2022-10-17T13:40:17.534Z,101807.59
2022-10-17T13:42:45.120Z,101802.69
2022-10-17T13:45:29.548Z,101799.41
2022-10-17T13:47:58.199Z,101798.34
2022-10-17T13:50:44.194Z,101799.97
2022-10-17T13:53:31.927Z,101799.56
2022-10-17T13:56:26.470Z,101803.28
2022-10-17T13:58:53.121Z,101786.72
2022-10-17T14:01:20.993Z,101799.16
2022-10-17T14:03:54.091Z,101800.53
2022-10-17T14:06:30.423Z,101794.50
2022-10-17T14:09:04.459Z,101797.88
2022-10-17T14:11:37.960Z,101796.41
2022-10-17T14:14:16.646Z,101797.69
2022-10-17T14:16:43.922Z,101798.31
2022-10-17T14:19:36.090Z,101785.84
2022-10-17T14:22:27.790Z,101785.69
2022-10-17T14:24:59.039Z,101785.69
2022-10-17T14:27:28.328Z,101780.81
2022-10-17T14:30:00.971Z,101781.44
2022-10-17T14:32:30.750Z,101785.78
2022-10-17T14:35:16.556Z,101782.91
2022-10-17T14:37:48.866Z,101786.88
2022-10-17T14:40:23.698Z,101784.56
2022-10-17T14:42:53.235Z,101788.63
2022-10-17T14:45:32.556Z,101785.31
2022-10-17T14:48:14.639Z,101787.25
2022-10-17T14:53:12.994Z,101788.91
2022-10-17T14:55:54.122Z,101789.78
2022-10-17T14:58:29.314Z,101791.53
2022-10-17T15:00:56.973Z,101788.78
2022-10-17T15:03:24.127Z,101786.81
2022-10-17T15:05:51.613Z,101789.09
2022-10-17T15:08:20.685Z,101789.91
2022-10-17T15:10:49.034Z,101777.22
2022-10-17T15:13:27.690Z,101779.09
2022-10-17T15:15:54.989Z,101778.06
2022-10-17T15:18:21.574Z,101776.88
2022-10-17T15:20:52.655Z,101784.28
2022-10-17T15:23:27.193Z,101782.69
2022-10-17T15:25:53.875Z,101790.56
2022-10-17T15:28:20.450Z,101786.06
2022-10-17T15:30:47.017Z,101790.25
2022-10-17T15:33:13.541Z,101799.72
2022-10-17T15:35:40.111Z,101794.97
2022-10-17T15:38:08.600Z,101798.94
2022-10-17T15:40:35.133Z,101805.47
2022-10-17T15:43:01.695Z,101803.13
2022-10-17T15:45:28.446Z,101799.53
2022-10-17T15:48:00.457Z,101804.22
2022-10-17T15:50:29.051Z,101805.22
2022-10-17T15:52:55.595Z,101808.69
2022-10-17T15:55:22.669Z,101819.78
2022-10-17T15:57:49.563Z,101815.72
2022-10-17T16:00:19.196Z,101818.50
2022-10-17T16:02:46.512Z,101822.72
2022-10-17T16:05:23.100Z,101815.59
2022-10-17T16:07:50.426Z,101823.41
2022-10-17T16:10:18.155Z,101818.44
2022-10-17T16:12:45.309Z,101822.44
2022-10-17T16:15:17.577Z,101820.66
2022-10-17T16:17:44.400Z,101829.66
2022-10-17T16:20:12.758Z,101833.37
2022-10-17T16:22:42.048Z,101828.62
2022-10-17T16:25:19.560Z,101829.31
2022-10-17T16:27:48.030Z,101828.97
2022-10-17T16:30:15.368Z,101836.87
2022-10-17T16:32:42.561Z,101834.19
2022-10-17T16:35:11.546Z,101829.00
2022-10-17T16:37:38.067Z,101828.50
2022-10-17T16:40:05.143Z,101835.81
2022-10-17T16:42:32.028Z,101837.53
2022-10-17T16:44:58.893Z,101831.81
2022-10-17T16:47:25.506Z,101840.53
2022-10-17T16:49:52.084Z,101836.59
2022-10-17T16:52:18.646Z,101845.16
2022-10-17T16:54:45.342Z,101849.47
2022-10-17T16:57:11.931Z,101844.50
2022-10-17T16:59:38.710Z,101839.34
2022-10-17T17:02:05.566Z,101842.47
2022-10-17T17:04:32.137Z,101841.03
2022-10-17T17:06:58.858Z,101843.53
2022-10-17T17:09:25.395Z,101845.94
2022-10-17T17:11:51.954Z,101849.25
2022-10-17T17:14:18.545Z,101846.34
2022-10-17T17:16:45.186Z,101842.84
2022-10-17T17:19:15.144Z,101845.81
2022-10-17T17:21:47.565Z,101855.12
2022-10-17T17:24:14.185Z,101852.88
2022-10-17T17:26:41.588Z,101857.16
2022-10-17T17:29:08.426Z,101857.31
2022-10-17T17:31:35.858Z,101855.22
2022-10-17T17:34:02.618Z,101861.63
2022-10-17T17:36:31.723Z,101859.03
2022-10-17T17:39:00.392Z,101864.59
2022-10-17T17:41:28.263Z,101859.72
2022-10-17T17:43:55.801Z,101856.84
2022-10-17T17:46:23.967Z,101858.81
2022-10-17T17:48:51.968Z,101859.16
2022-10-17T17:51:24.263Z,101859.34
2022-10-17T17:53:54.317Z,101855.59
2022-10-17T17:56:26.593Z,101852.38
2022-10-17T17:58:56.181Z,101854.31
2022-10-17T18:01:24.866Z,101847.84
2022-10-17T18:03:53.339Z,101851.41
2022-10-17T18:06:21.077Z,101851.25
2022-10-17T18:08:50.456Z,101858.25
2022-10-17T18:11:19.644Z,101849.94
2022-10-17T18:13:53.741Z,101854.37
2022-10-17T18:16:20.297Z,101855.34
2022-10-17T18:18:46.989Z,101854.25
2022-10-17T18:21:14.288Z,101855.72
2022-10-17T18:23:42.693Z,101854.25
2022-10-17T18:26:09.973Z,101853.63
2022-10-17T18:28:38.369Z,101850.56
2022-10-17T18:31:28.309Z,101849.59
2022-10-17T18:33:56.943Z,101848.13
2022-10-17T18:36:26.164Z,101851.69
2022-10-17T18:38:53.797Z,101851.41
2022-10-17T18:41:22.971Z,101855.16
2022-10-17T18:43:50.812Z,101846.69
2022-10-17T18:46:28.846Z,101843.13
2022-10-17T18:48:56.043Z,101850.28
2022-10-17T18:51:24.309Z,101850.56
2022-10-17T18:53:53.980Z,101850.09
2022-10-17T18:56:24.782Z,101842.31
2022-10-17T18:58:54.976Z,101856.94
2022-10-17T19:01:24.565Z,101848.81
2022-10-17T19:03:53.450Z,101854.69
2022-10-17T19:06:22.622Z,101850.63
2022-10-17T19:08:49.692Z,101852.56
2022-10-17T19:11:22.247Z,101847.22
2022-10-17T19:13:49.595Z,101841.22
2022-10-17T19:16:22.209Z,101848.69
2022-10-17T19:18:53.778Z,101849.69
2022-10-17T19:21:22.033Z,101851.47
2022-10-17T19:23:51.251Z,101842.84
2022-10-17T19:26:18.848Z,101848.38
2022-10-17T19:28:45.659Z,101845.94
2022-10-17T19:31:16.836Z,101846.75
2022-10-17T19:33:44.638Z,101845.94
2022-10-17T19:36:12.126Z,101849.06
2022-10-17T19:38:39.022Z,101852.12
2022-10-17T19:41:07.880Z,101842.69
2022-10-17T19:43:38.539Z,101843.87
2022-10-17T19:46:08.487Z,101846.13
2022-10-17T19:48:39.486Z,101838.47
2022-10-17T19:51:13.515Z,101840.28
2022-10-17T19:53:40.679Z,101845.81
2022-10-17T19:56:08.955Z,101846.78
2022-10-17T19:58:43.737Z,101844.19
2022-10-17T20:01:12.931Z,101842.06
2022-10-17T20:03:39.575Z,101844.84
2022-10-17T20:06:07.062Z,101846.13
2022-10-17T20:08:34.006Z,101845.66
2022-10-17T20:11:09.182Z,101840.44
2022-10-17T20:13:36.751Z,101845.81
2022-10-17T20:16:04.898Z,101841.56
2022-10-17T20:18:31.826Z,101834.25
2022-10-17T20:21:07.221Z,101850.03
2022-10-17T20:23:34.444Z,101846.78
2022-10-17T20:26:08.062Z,101843.03
2022-10-17T20:28:46.427Z,101850.19
2022-10-17T20:31:13.477Z,101844.94
2022-10-17T20:33:41.491Z,101843.50
2022-10-17T20:36:09.912Z,101838.78
2022-10-17T20:38:36.941Z,101852.72
2022-10-17T20:41:08.591Z,101842.00
2022-10-17T20:43:36.169Z,101841.34
2022-10-17T20:46:15.449Z,101841.50
2022-10-17T20:48:55.263Z,101843.44
2022-10-17T20:51:22.034Z,101841.16
2022-10-17T20:53:48.889Z,101839.69
2022-10-17T20:56:28.044Z,101839.53
2022-10-17T20:58:57.406Z,101837.63
2022-10-17T21:01:25.263Z,101838.72
2022-10-17T21:03:52.706Z,101841.31
2022-10-17T21:06:19.666Z,101841.50
2022-10-17T21:08:47.186Z,101838.88
2022-10-17T21:11:19.234Z,101839.03
2022-10-17T21:13:47.500Z,101840.00
2022-10-17T21:16:18.689Z,101837.56
2022-10-17T21:18:46.243Z,101832.69
2022-10-17T21:21:14.976Z,101832.69
2022-10-17T21:23:43.682Z,101830.06
2022-10-17T21:26:12.651Z,101841.09
2022-10-17T21:28:43.951Z,101843.69
2022-10-17T21:31:21.317Z,101837.53
2022-10-17T21:33:54.303Z,101840.75
2022-10-17T21:36:22.524Z,101838.62
2022-10-17T21:38:50.850Z,101837.94
2022-10-17T21:41:21.327Z,101832.25
2022-10-17T21:43:48.384Z,101837.13
2022-10-17T21:46:17.413Z,101828.94
2022-10-17T21:48:45.314Z,101833.47
2022-10-17T21:51:15.630Z,101833.44
2022-10-17T21:53:43.039Z,101835.06
2022-10-17T21:56:15.786Z,101830.69
2022-10-17T21:58:42.912Z,101833.75
2022-10-17T22:01:11.664Z,101831.16
2022-10-17T22:03:44.075Z,101828.03
2022-10-17T22:09:03.189Z,101832.72
2022-10-17T22:11:32.119Z,101825.41
2022-10-17T22:14:01.483Z,101830.91
2022-10-17T22:16:28.358Z,101825.38
2022-10-17T22:19:03.206Z,101816.13
2022-10-17T22:21:33.204Z,101821.31
2022-10-17T22:24:03.261Z,101829.22
2022-10-17T22:26:31.934Z,101824.50
2022-10-17T22:28:58.680Z,101822.69
2022-10-17T22:31:25.802Z,101821.91
2022-10-17T22:33:52.638Z,101812.78
2022-10-17T22:36:19.319Z,101819.25
2022-10-17T22:38:45.994Z,101816.28
2022-10-17T22:41:12.538Z,101817.25
2022-10-17T22:43:39.104Z,101813.03
2022-10-17T22:46:06.873Z,101811.22
2022-10-17T22:48:34.064Z,101813.28
2022-10-17T22:51:01.258Z,101815.38
2022-10-17T22:53:29.437Z,101814.72
2022-10-17T22:56:00.856Z,101813.53
2022-10-17T22:58:29.520Z,101820.78
2022-10-17T23:00:56.820Z,101819.59
2022-10-17T23:03:25.318Z,101825.44
2022-10-17T23:05:51.985Z,101824.78
2022-10-17T23:08:20.866Z,101822.50
2022-10-17T23:10:47.928Z,101817.91
2022-10-17T23:13:15.252Z,101816.56
2022-10-17T23:15:42.623Z,101817.69
2022-10-17T23:18:10.183Z,101821.53
2022-10-17T23:20:37.712Z,101813.09
2022-10-17T23:23:05.189Z,101806.72
2022-10-17T23:25:34.593Z,101808.50
2022-10-17T23:28:01.550Z,101804.13
2022-10-17T23:30:28.341Z,101805.25
2022-10-17T23:32:55.033Z,101800.78
2022-10-17T23:35:21.620Z,101800.00
2022-10-17T23:37:48.168Z,101803.16
2022-10-17T23:40:14.811Z,101796.66
2022-10-17T23:42:41.408Z,101796.00
2022-10-17T23:45:08.594Z,101792.87
2022-10-17T23:47:35.142Z,101797.78
2022-10-17T23:50:01.696Z,101795.47
2022-10-17T23:52:28.262Z,101792.19
2022-10-17T23:54:54.918Z,101788.16
2022-10-17T23:57:21.452Z,101784.72
2022-10-17T23:59:47.987Z,101787.72
